aviador You're here:

K2V5 Decoded Metar

in
Report Time2018-02-25 11:15:00
UTC Time2018-02-25 11:37:20
Flight Rules vfr VFR
Wind250° at 07 kt
W.Rank250° ranks 1
Current wind is above 250° avg. (5.8)
Visibility9999 m
Phenomena:N/A
Clouds:N/A
Expected CloudBase > 2,400 ft AGL from Temp-Dew spread
CeilingNone
Temp-5°C
Dew Point-11°C (63% RH)
AAT-10.6°C
QNH1012 hPa
Raw Report
METAR K2V5 251115Z AUTO 25007KT 10SM CLR M05/M11 A2987 RMK AO2=

Extra information for K2V5:More info

Social comments